sensor_id;sensor_type;location;lat;lon;timestamp;temperature;humidity
68217;DHT22;55037;52.354;4.992;2022-11-20T00:01:17;1.20;75.90
68217;DHT22;55037;52.354;4.992;2022-11-20T00:03:45;1.20;74.90
68217;DHT22;55037;52.354;4.992;2022-11-20T00:06:15;1.10;74.80
68217;DHT22;55037;52.354;4.992;2022-11-20T00:08:43;1.20;74.80
68217;DHT22;55037;52.354;4.992;2022-11-20T00:11:19;1.10;74.50
68217;DHT22;55037;52.354;4.992;2022-11-20T00:13:49;1.10;74.50
68217;DHT22;55037;52.354;4.992;2022-11-20T00:16:18;1.00;74.90
68217;DHT22;55037;52.354;4.992;2022-11-20T00:18:46;1.00;74.60
68217;DHT22;55037;52.354;4.992;2022-11-20T00:21:17;0.90;74.80
68217;DHT22;55037;52.354;4.992;2022-11-20T00:23:45;0.80;75.00
68217;DHT22;55037;52.354;4.992;2022-11-20T00:26:14;0.80;75.20
68217;DHT22;55037;52.354;4.992;2022-11-20T00:28:44;0.70;75.50
68217;DHT22;55037;52.354;4.992;2022-11-20T00:31:14;0.70;76.30
68217;DHT22;55037;52.354;4.992;2022-11-20T00:33:43;0.70;76.70
68217;DHT22;55037;52.354;4.992;2022-11-20T00:36:13;0.70;76.50
68217;DHT22;55037;52.354;4.992;2022-11-20T00:38:41;0.80;76.70
68217;DHT22;55037;52.354;4.992;2022-11-20T00:41:11;0.70;76.50
68217;DHT22;55037;52.354;4.992;2022-11-20T00:43:39;0.70;76.00
68217;DHT22;55037;52.354;4.992;2022-11-20T00:46:09;0.60;75.80
68217;DHT22;55037;52.354;4.992;2022-11-20T00:48:36;0.50;75.10
68217;DHT22;55037;52.354;4.992;2022-11-20T00:51:04;0.50;75.90
68217;DHT22;55037;52.354;4.992;2022-11-20T00:53:31;0.50;75.90
68217;DHT22;55037;52.354;4.992;2022-11-20T00:56:03;0.50;75.80
68217;DHT22;55037;52.354;4.992;2022-11-20T00:58:35;0.50;75.90
68217;DHT22;55037;52.354;4.992;2022-11-20T01:01:08;0.50;75.70
68217;DHT22;55037;52.354;4.992;2022-11-20T01:03:38;0.60;75.50
68217;DHT22;55037;52.354;4.992;2022-11-20T01:06:15;0.60;75.50
68217;DHT22;55037;52.354;4.992;2022-11-20T01:08:43;0.70;74.60
68217;DHT22;55037;52.354;4.992;2022-11-20T01:11:14;0.70;75.40
68217;DHT22;55037;52.354;4.992;2022-11-20T01:13:41;0.70;75.10
68217;DHT22;55037;52.354;4.992;2022-11-20T01:18:42;0.50;75.10
68217;DHT22;55037;52.354;4.992;2022-11-20T01:21:12;0.50;76.00
68217;DHT22;55037;52.354;4.992;2022-11-20T01:23:40;0.60;76.40
68217;DHT22;55037;52.354;4.992;2022-11-20T01:26:14;0.60;76.80
68217;DHT22;55037;52.354;4.992;2022-11-20T01:28:42;0.60;77.00
68217;DHT22;55037;52.354;4.992;2022-11-20T01:33:46;0.60;77.40
68217;DHT22;55037;52.354;4.992;2022-11-20T01:36:15;0.70;77.90
68217;DHT22;55037;52.354;4.992;2022-11-20T01:38:43;0.60;77.80
68217;DHT22;55037;52.354;4.992;2022-11-20T01:41:11;0.60;77.60
68217;DHT22;55037;52.354;4.992;2022-11-20T01:44:00;0.70;77.80
68217;DHT22;55037;52.354;4.992;2022-11-20T01:46:28;0.60;77.70
68217;DHT22;55037;52.354;4.992;2022-11-20T01:52:05;0.60;78.60
68217;DHT22;55037;52.354;4.992;2022-11-20T01:54:38;0.50;78.70
68217;DHT22;55037;52.354;4.992;2022-11-20T01:57:08;0.50;78.40
68217;DHT22;55037;52.354;4.992;2022-11-20T01:59:43;0.40;77.50
68217;DHT22;55037;52.354;4.992;2022-11-20T02:02:12;0.50;78.60
68217;DHT22;55037;52.354;4.992;2022-11-20T02:04:39;0.50;78.80
68217;DHT22;55037;52.354;4.992;2022-11-20T02:07:07;0.40;78.70
68217;DHT22;55037;52.354;4.992;2022-11-20T02:09:35;0.40;79.00
68217;DHT22;55037;52.354;4.992;2022-11-20T02:12:03;0.40;78.60
68217;DHT22;55037;52.354;4.992;2022-11-20T02:14:30;0.40;78.40
68217;DHT22;55037;52.354;4.992;2022-11-20T02:16:57;0.40;78.50
68217;DHT22;55037;52.354;4.992;2022-11-20T02:19:28;0.40;78.10
68217;DHT22;55037;52.354;4.992;2022-11-20T02:22:14;0.50;79.10
68217;DHT22;55037;52.354;4.992;2022-11-20T02:24:45;0.40;79.00
68217;DHT22;55037;52.354;4.992;2022-11-20T02:27:14;0.40;79.00
68217;DHT22;55037;52.354;4.992;2022-11-20T02:29:58;0.40;79.20
68217;DHT22;55037;52.354;4.992;2022-11-20T02:32:29;0.40;79.40
68217;DHT22;55037;52.354;4.992;2022-11-20T02:34:57;0.40;79.30
68217;DHT22;55037;52.354;4.992;2022-11-20T02:37:32;0.30;79.10
68217;DHT22;55037;52.354;4.992;2022-11-20T02:39:59;0.30;78.80
68217;DHT22;55037;52.354;4.992;2022-11-20T02:42:27;0.30;78.60
68217;DHT22;55037;52.354;4.992;2022-11-20T02:44:54;0.20;78.90
68217;DHT22;55037;52.354;4.992;2022-11-20T02:47:21;0.10;79.20
68217;DHT22;55037;52.354;4.992;2022-11-20T02:49:48;0.10;78.70
68217;DHT22;55037;52.354;4.992;2022-11-20T02:52:15;0.10;79.50
68217;DHT22;55037;52.354;4.992;2022-11-20T02:54:42;0.10;79.50
68217;DHT22;55037;52.354;4.992;2022-11-20T02:57:10;0.10;79.50
68217;DHT22;55037;52.354;4.992;2022-11-20T02:59:37;0.10;79.70
68217;DHT22;55037;52.354;4.992;2022-11-20T03:02:04;0.10;80.20
68217;DHT22;55037;52.354;4.992;2022-11-20T03:04:31;0.10;80.50
68217;DHT22;55037;52.354;4.992;2022-11-20T03:06:59;0.10;80.30
68217;DHT22;55037;52.354;4.992;2022-11-20T03:09:26;0.00;80.40
68217;DHT22;55037;52.354;4.992;2022-11-20T03:11:53;0.10;80.50
68217;DHT22;55037;52.354;4.992;2022-11-20T03:14:20;0.00;80.50
68217;DHT22;55037;52.354;4.992;2022-11-20T03:16:47;0.00;81.10
68217;DHT22;55037;52.354;4.992;2022-11-20T03:19:15;0.00;81.30
68217;DHT22;55037;52.354;4.992;2022-11-20T03:21:42;0.00;81.40
68217;DHT22;55037;52.354;4.992;2022-11-20T03:24:09;0.00;81.50
68217;DHT22;55037;52.354;4.992;2022-11-20T03:26:36;0.10;81.20
68217;DHT22;55037;52.354;4.992;2022-11-20T03:29:04;0.00;81.00
68217;DHT22;55037;52.354;4.992;2022-11-20T03:31:34;0.00;81.10
68217;DHT22;55037;52.354;4.992;2022-11-20T03:34:02;-0.10;81.00
68217;DHT22;55037;52.354;4.992;2022-11-20T03:36:30;0.00;81.00
68217;DHT22;55037;52.354;4.992;2022-11-20T03:38:57;-0.10;80.80
68217;DHT22;55037;52.354;4.992;2022-11-20T03:41:27;-0.10;80.90
68217;DHT22;55037;52.354;4.992;2022-11-20T03:44:02;-0.10;81.20
68217;DHT22;55037;52.354;4.992;2022-11-20T03:46:30;-0.10;81.70
68217;DHT22;55037;52.354;4.992;2022-11-20T03:48:57;-0.10;82.10
68217;DHT22;55037;52.354;4.992;2022-11-20T03:51:43;-0.10;82.20
68217;DHT22;55037;52.354;4.992;2022-11-20T03:54:10;-0.20;82.30
68217;DHT22;55037;52.354;4.992;2022-11-20T03:56:38;-0.10;82.30
68217;DHT22;55037;52.354;4.992;2022-11-20T03:59:06;-0.20;82.10
68217;DHT22;55037;52.354;4.992;2022-11-20T04:01:35;-0.20;82.50
68217;DHT22;55037;52.354;4.992;2022-11-20T04:04:04;-0.20;82.70
68217;DHT22;55037;52.354;4.992;2022-11-20T04:06:37;-0.20;82.80
68217;DHT22;55037;52.354;4.992;2022-11-20T04:09:05;-0.10;83.00
68217;DHT22;55037;52.354;4.992;2022-11-20T04:11:35;-0.10;83.00
68217;DHT22;55037;52.354;4.992;2022-11-20T04:14:05;-0.10;83.00
68217;DHT22;55037;52.354;4.992;2022-11-20T04:16:34;-0.10;83.00
68217;DHT22;55037;52.354;4.992;2022-11-20T04:19:04;-0.10;83.20
68217;DHT22;55037;52.354;4.992;2022-11-20T04:21:32;-0.10;83.30
68217;DHT22;55037;52.354;4.992;2022-11-20T04:23:59;-0.10;83.50
68217;DHT22;55037;52.354;4.992;2022-11-20T04:26:28;-0.10;83.30
68217;DHT22;55037;52.354;4.992;2022-11-20T04:28:56;0.00;83.30
68217;DHT22;55037;52.354;4.992;2022-11-20T04:31:26;0.00;83.10
68217;DHT22;55037;52.354;4.992;2022-11-20T04:33:54;0.00;83.20
68217;DHT22;55037;52.354;4.992;2022-11-20T04:36:24;-0.10;83.00
68217;DHT22;55037;52.354;4.992;2022-11-20T04:38:52;-0.10;82.90
68217;DHT22;55037;52.354;4.992;2022-11-20T04:41:25;0.00;83.10
68217;DHT22;55037;52.354;4.992;2022-11-20T04:43:55;-0.10;83.00
68217;DHT22;55037;52.354;4.992;2022-11-20T04:46:34;-0.20;83.10
68217;DHT22;55037;52.354;4.992;2022-11-20T04:49:02;-0.20;83.10
68217;DHT22;55037;52.354;4.992;2022-11-20T04:51:29;-0.10;83.80
68217;DHT22;55037;52.354;4.992;2022-11-20T04:53:56;-0.20;84.10
68217;DHT22;55037;52.354;4.992;2022-11-20T04:56:23;-0.20;84.10
68217;DHT22;55037;52.354;4.992;2022-11-20T04:58:51;-0.20;84.00
68217;DHT22;55037;52.354;4.992;2022-11-20T05:01:21;-0.20;84.10
68217;DHT22;55037;52.354;4.992;2022-11-20T05:03:49;-0.10;84.30
68217;DHT22;55037;52.354;4.992;2022-11-20T05:06:19;-0.20;84.40
68217;DHT22;55037;52.354;4.992;2022-11-20T05:08:47;-0.10;84.30
68217;DHT22;55037;52.354;4.992;2022-11-20T05:11:20;-0.10;84.30
68217;DHT22;55037;52.354;4.992;2022-11-20T05:13:48;-0.10;84.10
68217;DHT22;55037;52.354;4.992;2022-11-20T05:16:21;-0.10;84.30
68217;DHT22;55037;52.354;4.992;2022-11-20T05:18:49;-0.10;83.50
68217;DHT22;55037;52.354;4.992;2022-11-20T05:21:17;-0.10;84.10
68217;DHT22;55037;52.354;4.992;2022-11-20T05:23:45;-0.10;83.90
68217;DHT22;55037;52.354;4.992;2022-11-20T05:26:18;-0.10;83.90
68217;DHT22;55037;52.354;4.992;2022-11-20T05:28:46;-0.20;83.80
68217;DHT22;55037;52.354;4.992;2022-11-20T05:31:18;-0.20;83.70
68217;DHT22;55037;52.354;4.992;2022-11-20T05:33:54;-0.20;83.70
68217;DHT22;55037;52.354;4.992;2022-11-20T05:36:22;-0.20;83.70
68217;DHT22;55037;52.354;4.992;2022-11-20T05:38:49;-0.30;83.70
68217;DHT22;55037;52.354;4.992;2022-11-20T05:41:20;-0.40;83.70
68217;DHT22;55037;52.354;4.992;2022-11-20T05:43:48;-0.40;83.80
68217;DHT22;55037;52.354;4.992;2022-11-20T05:46:19;-0.40;83.80
68217;DHT22;55037;52.354;4.992;2022-11-20T05:48:55;-0.40;83.20
68217;DHT22;55037;52.354;4.992;2022-11-20T05:51:22;-0.40;84.10
68217;DHT22;55037;52.354;4.992;2022-11-20T05:53:50;-0.40;84.20
68217;DHT22;55037;52.354;4.992;2022-11-20T05:56:19;-0.50;84.10
68217;DHT22;55037;52.354;4.992;2022-11-20T05:58:47;-0.50;84.50
68217;DHT22;55037;52.354;4.992;2022-11-20T06:01:20;-0.50;84.60
68217;DHT22;55037;52.354;4.992;2022-11-20T06:03:48;-0.40;84.60
68217;DHT22;55037;52.354;4.992;2022-11-20T06:06:18;-0.40;84.60
68217;DHT22;55037;52.354;4.992;2022-11-20T06:08:46;-0.30;84.90
68217;DHT22;55037;52.354;4.992;2022-11-20T06:11:14;-0.30;85.40
68217;DHT22;55037;52.354;4.992;2022-11-20T06:13:44;-0.20;85.60
68217;DHT22;55037;52.354;4.992;2022-11-20T06:16:14;-0.20;85.50
68217;DHT22;55037;52.354;4.992;2022-11-20T06:18:42;-0.10;85.40
68217;DHT22;55037;52.354;4.992;2022-11-20T06:21:12;0.00;85.60
68217;DHT22;55037;52.354;4.992;2022-11-20T06:23:41;-0.10;85.70
68217;DHT22;55037;52.354;4.992;2022-11-20T06:26:18;0.00;85.60
68217;DHT22;55037;52.354;4.992;2022-11-20T06:28:45;0.10;85.50
68217;DHT22;55037;52.354;4.992;2022-11-20T06:31:14;0.10;85.00
68217;DHT22;55037;52.354;4.992;2022-11-20T06:33:42;0.10;84.60
68217;DHT22;55037;52.354;4.992;2022-11-20T06:36:11;0.10;84.20
68217;DHT22;55037;52.354;4.992;2022-11-20T06:38:39;0.10;84.00
68217;DHT22;55037;52.354;4.992;2022-11-20T06:41:12;0.00;84.20
68217;DHT22;55037;52.354;4.992;2022-11-20T06:43:39;0.00;84.10
68217;DHT22;55037;52.354;4.992;2022-11-20T06:46:08;0.00;83.80
68217;DHT22;55037;52.354;4.992;2022-11-20T06:48:36;0.00;84.50
68217;DHT22;55037;52.354;4.992;2022-11-20T06:51:07;0.00;84.80
68217;DHT22;55037;52.354;4.992;2022-11-20T06:53:35;0.00;85.00
68217;DHT22;55037;52.354;4.992;2022-11-20T06:56:02;0.00;85.40
68217;DHT22;55037;52.354;4.992;2022-11-20T06:58:32;0.10;85.90
68217;DHT22;55037;52.354;4.992;2022-11-20T07:01:05;0.10;86.00
68217;DHT22;55037;52.354;4.992;2022-11-20T07:03:33;0.10;86.20
68217;DHT22;55037;52.354;4.992;2022-11-20T07:06:01;0.20;86.20
68217;DHT22;55037;52.354;4.992;2022-11-20T07:08:29;0.20;85.20
68217;DHT22;55037;52.354;4.992;2022-11-20T07:11:14;0.20;86.00
68217;DHT22;55037;52.354;4.992;2022-11-20T07:13:41;0.30;85.80
68217;DHT22;55037;52.354;4.992;2022-11-20T07:16:09;0.30;85.70
68217;DHT22;55037;52.354;4.992;2022-11-20T07:18:36;0.30;85.60
68217;DHT22;55037;52.354;4.992;2022-11-20T07:21:06;0.30;85.50
68217;DHT22;55037;52.354;4.992;2022-11-20T07:23:34;0.40;85.30
68217;DHT22;55037;52.354;4.992;2022-11-20T07:26:06;0.40;85.10
68217;DHT22;55037;52.354;4.992;2022-11-20T07:28:34;0.40;84.90
68217;DHT22;55037;52.354;4.992;2022-11-20T07:31:02;0.40;84.60
68217;DHT22;55037;52.354;4.992;2022-11-20T07:33:29;0.40;84.50
68217;DHT22;55037;52.354;4.992;2022-11-20T07:35:58;0.60;84.70
68217;DHT22;55037;52.354;4.992;2022-11-20T07:38:26;0.60;84.30
68217;DHT22;55037;52.354;4.992;2022-11-20T07:40:56;0.70;84.20
68217;DHT22;55037;52.354;4.992;2022-11-20T07:43:24;0.70;83.60
68217;DHT22;55037;52.354;4.992;2022-11-20T07:45:54;0.80;83.40
68217;DHT22;55037;52.354;4.992;2022-11-20T07:48:21;0.90;83.70
68217;DHT22;55037;52.354;4.992;2022-11-20T07:50:49;1.00;83.70
68217;DHT22;55037;52.354;4.992;2022-11-20T07:53:16;1.10;84.30
68217;DHT22;55037;52.354;4.992;2022-11-20T07:55:47;1.10;83.30
68217;DHT22;55037;52.354;4.992;2022-11-20T07:58:15;0.80;83.00
68217;DHT22;55037;52.354;4.992;2022-11-20T08:00:42;2.30;83.50
68217;DHT22;55037;52.354;4.992;2022-11-20T08:03:09;1.10;82.90
68217;DHT22;55037;52.354;4.992;2022-11-20T08:05:36;1.10;82.80
68217;DHT22;55037;52.354;4.992;2022-11-20T08:08:04;1.10;82.90
68217;DHT22;55037;52.354;4.992;2022-11-20T08:10:31;1.20;83.00
68217;DHT22;55037;52.354;4.992;2022-11-20T08:12:58;1.20;83.40
68217;DHT22;55037;52.354;4.992;2022-11-20T08:15:48;1.40;83.60
68217;DHT22;55037;52.354;4.992;2022-11-20T08:18:17;1.30;83.10
68217;DHT22;55037;52.354;4.992;2022-11-20T08:21:03;1.40;83.30
68217;DHT22;55037;52.354;4.992;2022-11-20T08:23:31;1.60;83.10
68217;DHT22;55037;52.354;4.992;2022-11-20T08:25:58;1.60;82.50
68217;DHT22;55037;52.354;4.992;2022-11-20T08:28:25;1.60;81.30
68217;DHT22;55037;52.354;4.992;2022-11-20T08:30:58;1.60;81.00
68217;DHT22;55037;52.354;4.992;2022-11-20T08:33:26;1.60;80.60
68217;DHT22;55037;52.354;4.992;2022-11-20T08:35:53;1.50;80.50
68217;DHT22;55037;52.354;4.992;2022-11-20T08:38:20;1.60;80.80
68217;DHT22;55037;52.354;4.992;2022-11-20T08:40:48;1.60;80.30
68217;DHT22;55037;52.354;4.992;2022-11-20T08:43:35;1.60;79.70
68217;DHT22;55037;52.354;4.992;2022-11-20T08:46:02;1.70;79.60
68217;DHT22;55037;52.354;4.992;2022-11-20T08:48:29;1.60;78.10
68217;DHT22;55037;52.354;4.992;2022-11-20T08:50:58;1.60;78.80
68217;DHT22;55037;52.354;4.992;2022-11-20T08:53:27;1.70;79.20
68217;DHT22;55037;52.354;4.992;2022-11-20T08:55:54;1.70;79.10
68217;DHT22;55037;52.354;4.992;2022-11-20T08:58:25;1.80;78.50
68217;DHT22;55037;52.354;4.992;2022-11-20T09:00:53;1.80;78.40
68217;DHT22;55037;52.354;4.992;2022-11-20T09:03:20;1.90;78.00
68217;DHT22;55037;52.354;4.992;2022-11-20T09:05:48;1.90;77.70
68217;DHT22;55037;52.354;4.992;2022-11-20T09:08:15;2.00;78.20
68217;DHT22;55037;52.354;4.992;2022-11-20T09:10:42;2.00;77.80
68217;DHT22;55037;52.354;4.992;2022-11-20T09:13:09;2.10;78.30
68217;DHT22;55037;52.354;4.992;2022-11-20T09:15:36;2.20;78.00
68217;DHT22;55037;52.354;4.992;2022-11-20T09:18:03;2.30;78.00
68217;DHT22;55037;52.354;4.992;2022-11-20T09:20:31;2.30;78.00
68217;DHT22;55037;52.354;4.992;2022-11-20T09:22:59;2.50;78.00
68217;DHT22;55037;52.354;4.992;2022-11-20T09:25:26;2.70;77.80
68217;DHT22;55037;52.354;4.992;2022-11-20T09:27:57;3.10;75.30
68217;DHT22;55037;52.354;4.992;2022-11-20T09:30:25;3.10;76.10
68217;DHT22;55037;52.354;4.992;2022-11-20T09:32:53;3.30;76.00
68217;DHT22;55037;52.354;4.992;2022-11-20T09:35:21;3.50;75.40
68217;DHT22;55037;52.354;4.992;2022-11-20T09:37:48;3.60;74.40
68217;DHT22;55037;52.354;4.992;2022-11-20T09:40:23;3.70;73.70
68217;DHT22;55037;52.354;4.992;2022-11-20T09:43:22;3.70;73.50
68217;DHT22;55037;52.354;4.992;2022-11-20T09:46:17;3.80;73.50
68217;DHT22;55037;52.354;4.992;2022-11-20T09:48:49;3.90;71.80
68217;DHT22;55037;52.354;4.992;2022-11-20T09:51:51;3.90;72.40
68217;DHT22;55037;52.354;4.992;2022-11-20T09:54:21;3.90;72.40
68217;DHT22;55037;52.354;4.992;2022-11-20T09:56:53;3.80;72.30
68217;DHT22;55037;52.354;4.992;2022-11-20T10:07:43;4.50;72.50
68217;DHT22;55037;52.354;4.992;2022-11-20T10:15:51;12.10;48.90
68217;DHT22;55037;52.354;4.992;2022-11-20T10:18:44;11.60;44.90
68217;DHT22;55037;52.354;4.992;2022-11-20T10:24:29;9.50;48.20
68217;DHT22;55037;52.354;4.992;2022-11-20T10:30:09;7.40;55.10
68217;DHT22;55037;52.354;4.992;2022-11-20T10:32:58;6.40;61.50
68217;DHT22;55037;52.354;4.992;2022-11-20T10:35:37;5.70;62.60
68217;DHT22;55037;52.354;4.992;2022-11-20T10:38:15;5.20;64.90
68217;DHT22;55037;52.354;4.992;2022-11-20T10:40:52;4.80;66.60
68217;DHT22;55037;52.354;4.992;2022-11-20T10:43:39;4.60;68.20
68217;DHT22;55037;52.354;4.992;2022-11-20T10:46:16;4.50;69.30
68217;DHT22;55037;52.354;4.992;2022-11-20T10:48:44;4.50;70.20
68217;DHT22;55037;52.354;4.992;2022-11-20T10:53:56;4.40;71.60
68217;DHT22;55037;52.354;4.992;2022-11-20T10:56:27;4.40;72.40
68217;DHT22;55037;52.354;4.992;2022-11-20T11:01:40;4.40;72.30
68217;DHT22;55037;52.354;4.992;2022-11-20T11:04:37;4.30;72.40
68217;DHT22;55037;52.354;4.992;2022-11-20T11:07:16;4.30;72.30
68217;DHT22;55037;52.354;4.992;2022-11-20T11:09:55;4.20;72.70
68217;DHT22;55037;52.354;4.992;2022-11-20T11:12:25;4.20;72.90
68217;DHT22;55037;52.354;4.992;2022-11-20T11:14:57;4.10;73.00
68217;DHT22;55037;52.354;4.992;2022-11-20T11:17:32;3.90;73.40
68217;DHT22;55037;52.354;4.992;2022-11-20T11:20:15;3.90;74.10
68217;DHT22;55037;52.354;4.992;2022-11-20T11:22:46;4.00;74.50
68217;DHT22;55037;52.354;4.992;2022-11-20T11:25:22;4.10;74.60
68217;DHT22;55037;52.354;4.992;2022-11-20T11:27:51;4.20;74.00
68217;DHT22;55037;52.354;4.992;2022-11-20T11:30:19;4.20;74.10
68217;DHT22;55037;52.354;4.992;2022-11-20T11:32:47;4.10;74.10
68217;DHT22;55037;52.354;4.992;2022-11-20T11:35:33;4.10;74.50
68217;DHT22;55037;52.354;4.992;2022-11-20T11:38:14;4.10;75.10
68217;DHT22;55037;52.354;4.992;2022-11-20T11:40:43;4.20;75.40
68217;DHT22;55037;52.354;4.992;2022-11-20T11:43:23;4.40;75.60
68217;DHT22;55037;52.354;4.992;2022-11-20T11:46:29;4.50;75.40
68217;DHT22;55037;52.354;4.992;2022-11-20T11:54:20;4.60;75.00
68217;DHT22;55037;52.354;4.992;2022-11-20T11:56:49;4.60;75.10
68217;DHT22;55037;52.354;4.992;2022-11-20T11:59:46;4.50;75.40
68217;DHT22;55037;52.354;4.992;2022-11-20T12:05:26;4.30;76.60
68217;DHT22;55037;52.354;4.992;2022-11-20T12:11:04;4.20;77.80
68217;DHT22;55037;52.354;4.992;2022-11-20T12:16:04;3.80;79.00
68217;DHT22;55037;52.354;4.992;2022-11-20T12:18:33;3.70;79.70
68217;DHT22;55037;52.354;4.992;2022-11-20T12:21:18;3.70;80.20
68217;DHT22;55037;52.354;4.992;2022-11-20T12:32:03;4.00;82.30
68217;DHT22;55037;52.354;4.992;2022-11-20T12:46:05;4.00;84.00
68217;DHT22;55037;52.354;4.992;2022-11-20T13:01:48;4.20;85.20
68217;DHT22;55037;52.354;4.992;2022-11-20T13:07:05;4.20;85.20
68217;DHT22;55037;52.354;4.992;2022-11-20T13:09:37;4.30;85.60
68217;DHT22;55037;52.354;4.992;2022-11-20T13:17:45;4.20;85.90
68217;DHT22;55037;52.354;4.992;2022-11-20T13:20:16;4.00;86.20
68217;DHT22;55037;52.354;4.992;2022-11-20T13:22:46;4.00;86.70
68217;DHT22;55037;52.354;4.992;2022-11-20T13:25:30;3.90;87.20
68217;DHT22;55037;52.354;4.992;2022-11-20T13:28:00;4.00;87.70
68217;DHT22;55037;52.354;4.992;2022-11-20T13:30:29;4.00;88.00
68217;DHT22;55037;52.354;4.992;2022-11-20T13:33:32;4.00;88.20
68217;DHT22;55037;52.354;4.992;2022-11-20T13:38:47;4.00;88.10
68217;DHT22;55037;52.354;4.992;2022-11-20T13:41:36;3.90;88.10
68217;DHT22;55037;52.354;4.992;2022-11-20T13:44:23;3.80;88.50
68217;DHT22;55037;52.354;4.992;2022-11-20T13:46:51;3.90;89.00
68217;DHT22;55037;52.354;4.992;2022-11-20T13:51:55;3.90;89.20
68217;DHT22;55037;52.354;4.992;2022-11-20T13:55:20;3.90;89.10
68217;DHT22;55037;52.354;4.992;2022-11-20T14:01:00;3.90;89.50
68217;DHT22;55037;52.354;4.992;2022-11-20T14:03:30;3.90;89.80
68217;DHT22;55037;52.354;4.992;2022-11-20T14:06:32;3.90;89.90
68217;DHT22;55037;52.354;4.992;2022-11-20T14:08:59;4.00;90.00
68217;DHT22;55037;52.354;4.992;2022-11-20T14:11:30;4.10;90.00
68217;DHT22;55037;52.354;4.992;2022-11-20T14:14:04;4.10;89.80
68217;DHT22;55037;52.354;4.992;2022-11-20T14:16:40;4.10;90.10
68217;DHT22;55037;52.354;4.992;2022-11-20T14:21:53;4.30;90.00
68217;DHT22;55037;52.354;4.992;2022-11-20T14:24:24;4.30;89.80
68217;DHT22;55037;52.354;4.992;2022-11-20T14:26:52;4.30;89.60
68217;DHT22;55037;52.354;4.992;2022-11-20T14:29:28;4.30;89.40
68217;DHT22;55037;52.354;4.992;2022-11-20T14:31:56;4.20;89.40
68217;DHT22;55037;52.354;4.992;2022-11-20T14:34:32;4.10;89.60
68217;DHT22;55037;52.354;4.992;2022-11-20T14:37:04;4.10;90.10
68217;DHT22;55037;52.354;4.992;2022-11-20T14:39:35;4.10;90.20
68217;DHT22;55037;52.354;4.992;2022-11-20T14:42:17;4.00;90.20
68217;DHT22;55037;52.354;4.992;2022-11-20T14:44:44;3.90;90.30
68217;DHT22;55037;52.354;4.992;2022-11-20T14:47:13;3.90;90.50
68217;DHT22;55037;52.354;4.992;2022-11-20T14:49:43;3.90;90.20
68217;DHT22;55037;52.354;4.992;2022-11-20T14:54:53;3.90;91.40
68217;DHT22;55037;52.354;4.992;2022-11-20T15:00:08;4.00;90.80
68217;DHT22;55037;52.354;4.992;2022-11-20T15:02:46;4.00;90.80
68217;DHT22;55037;52.354;4.992;2022-11-20T15:05:14;4.00;90.90
68217;DHT22;55037;52.354;4.992;2022-11-20T15:07:45;4.00;91.00
68217;DHT22;55037;52.354;4.992;2022-11-20T15:10:23;4.00;90.90
68217;DHT22;55037;52.354;4.992;2022-11-20T15:12:56;3.90;91.00
68217;DHT22;55037;52.354;4.992;2022-11-20T15:15:31;4.00;91.10
68217;DHT22;55037;52.354;4.992;2022-11-20T15:17:59;4.00;91.10
68217;DHT22;55037;52.354;4.992;2022-11-20T15:20:30;4.00;91.20
68217;DHT22;55037;52.354;4.992;2022-11-20T15:22:58;4.00;91.30
68217;DHT22;55037;52.354;4.992;2022-11-20T15:25:25;4.00;91.20
68217;DHT22;55037;52.354;4.992;2022-11-20T15:27:55;4.00;91.20
68217;DHT22;55037;52.354;4.992;2022-11-20T15:30:23;4.00;91.40
68217;DHT22;55037;52.354;4.992;2022-11-20T15:32:51;4.10;91.50
68217;DHT22;55037;52.354;4.992;2022-11-20T15:35:18;4.10;91.50
68217;DHT22;55037;52.354;4.992;2022-11-20T15:37:45;4.20;91.40
68217;DHT22;55037;52.354;4.992;2022-11-20T15:40:13;4.30;91.40
68217;DHT22;55037;52.354;4.992;2022-11-20T15:42:40;4.30;91.40
68217;DHT22;55037;52.354;4.992;2022-11-20T15:45:33;4.30;91.40
68217;DHT22;55037;52.354;4.992;2022-11-20T15:48:01;4.40;91.80
68217;DHT22;55037;52.354;4.992;2022-11-20T15:53:11;4.50;91.30
68217;DHT22;55037;52.354;4.992;2022-11-20T15:55:39;4.50;91.20
68217;DHT22;55037;52.354;4.992;2022-11-20T15:58:06;4.50;91.20
68217;DHT22;55037;52.354;4.992;2022-11-20T16:00:33;4.50;91.10
68217;DHT22;55037;52.354;4.992;2022-11-20T16:03:00;4.50;91.20
68217;DHT22;55037;52.354;4.992;2022-11-20T16:05:28;4.50;91.30
68217;DHT22;55037;52.354;4.992;2022-11-20T16:07:56;4.50;91.30
68217;DHT22;55037;52.354;4.992;2022-11-20T16:10:23;4.50;91.30
68217;DHT22;55037;52.354;4.992;2022-11-20T16:12:50;4.50;91.30
68217;DHT22;55037;52.354;4.992;2022-11-20T16:15:36;4.50;91.50
68217;DHT22;55037;52.354;4.992;2022-11-20T16:18:17;4.50;91.60
68217;DHT22;55037;52.354;4.992;2022-11-20T16:20:47;4.50;91.40
68217;DHT22;55037;52.354;4.992;2022-11-20T16:23:15;4.60;91.40
68217;DHT22;55037;52.354;4.992;2022-11-20T16:25:42;4.60;91.30
68217;DHT22;55037;52.354;4.992;2022-11-20T16:28:10;4.60;91.30
68217;DHT22;55037;52.354;4.992;2022-11-20T16:30:44;4.50;91.30
68217;DHT22;55037;52.354;4.992;2022-11-20T16:33:14;4.50;91.40
68217;DHT22;55037;52.354;4.992;2022-11-20T16:35:41;4.50;91.50
68217;DHT22;55037;52.354;4.992;2022-11-20T16:38:09;4.50;91.50
68217;DHT22;55037;52.354;4.992;2022-11-20T16:40:36;4.60;91.70
68217;DHT22;55037;52.354;4.992;2022-11-20T16:43:08;4.60;91.60
68217;DHT22;55037;52.354;4.992;2022-11-20T16:45:40;4.60;91.50
68217;DHT22;55037;52.354;4.992;2022-11-20T16:48:12;4.60;91.50
68217;DHT22;55037;52.354;4.992;2022-11-20T16:50:50;4.60;91.60
68217;DHT22;55037;52.354;4.992;2022-11-20T16:53:19;4.60;91.60
68217;DHT22;55037;52.354;4.992;2022-11-20T16:55:47;4.60;91.60
68217;DHT22;55037;52.354;4.992;2022-11-20T16:58:15;4.50;91.60
68217;DHT22;55037;52.354;4.992;2022-11-20T17:00:42;4.60;91.80
68217;DHT22;55037;52.354;4.992;2022-11-20T17:03:17;4.60;91.90
68217;DHT22;55037;52.354;4.992;2022-11-20T17:05:44;4.60;91.90
68217;DHT22;55037;52.354;4.992;2022-11-20T17:08:12;4.70;92.00
68217;DHT22;55037;52.354;4.992;2022-11-20T17:10:39;4.70;92.10
68217;DHT22;55037;52.354;4.992;2022-11-20T17:13:06;4.80;92.20
68217;DHT22;55037;52.354;4.992;2022-11-20T17:15:33;4.90;92.20
68217;DHT22;55037;52.354;4.992;2022-11-20T17:18:00;4.90;92.20
68217;DHT22;55037;52.354;4.992;2022-11-20T17:20:29;4.90;92.20
68217;DHT22;55037;52.354;4.992;2022-11-20T17:22:58;5.00;92.20
68217;DHT22;55037;52.354;4.992;2022-11-20T17:25:25;5.10;92.20
68217;DHT22;55037;52.354;4.992;2022-11-20T17:27:53;5.10;92.20
68217;DHT22;55037;52.354;4.992;2022-11-20T17:30:20;5.10;91.90
68217;DHT22;55037;52.354;4.992;2022-11-20T17:32:47;5.20;91.90
68217;DHT22;55037;52.354;4.992;2022-11-20T17:35:15;5.20;91.70
68217;DHT22;55037;52.354;4.992;2022-11-20T17:37:42;5.10;91.70
68217;DHT22;55037;52.354;4.992;2022-11-20T17:40:09;5.20;91.90
68217;DHT22;55037;52.354;4.992;2022-11-20T17:42:36;5.20;91.70
68217;DHT22;55037;52.354;4.992;2022-11-20T17:45:04;5.20;91.50
68217;DHT22;55037;52.354;4.992;2022-11-20T17:47:34;5.10;91.60
68217;DHT22;55037;52.354;4.992;2022-11-20T17:50:03;5.10;91.80
68217;DHT22;55037;52.354;4.992;2022-11-20T17:52:30;5.10;91.60
68217;DHT22;55037;52.354;4.992;2022-11-20T17:54:57;5.10;91.60